createdAt,value
2023-01-13T00:00:15.821Z,30.086
2023-01-13T00:05:15.829Z,30.085
2023-01-13T00:10:15.947Z,30.075
2023-01-13T00:15:16.048Z,30.071
2023-01-13T00:20:16.108Z,30.068
2023-01-13T00:25:15.952Z,30.064
2023-01-13T00:30:15.873Z,30.054
2023-01-13T00:35:15.943Z,30.044
2023-01-13T00:40:15.908Z,30.038
2023-01-13T00:45:16.006Z,30.029
2023-01-13T00:50:15.920Z,30.031
2023-01-13T00:55:16.089Z,30.030
2023-01-13T01:00:15.979Z,30.027
2023-01-13T01:05:16.094Z,30.025
2023-01-13T01:10:16.020Z,30.018
2023-01-13T01:15:16.114Z,30.010
2023-01-13T01:20:16.003Z,30.006
2023-01-13T01:25:16.033Z,29.993
2023-01-13T01:30:16.024Z,29.993
2023-01-13T01:35:16.040Z,29.995
2023-01-13T01:40:16.128Z,29.994
2023-01-13T01:45:16.048Z,29.994
2023-01-13T01:50:16.076Z,29.992
2023-01-13T01:55:16.137Z,29.978
2023-01-13T02:00:16.199Z,29.976
2023-01-13T02:05:16.145Z,29.980
2023-01-13T02:10:16.215Z,29.984
2023-01-13T02:15:16.226Z,29.982
2023-01-13T02:20:16.120Z,29.975
2023-01-13T02:25:16.238Z,29.969
2023-01-13T02:30:16.165Z,29.959
2023-01-13T02:35:16.239Z,29.953
2023-01-13T02:40:16.280Z,29.947
2023-01-13T02:45:16.212Z,29.946
2023-01-13T02:50:16.285Z,29.944
2023-01-13T02:55:16.312Z,29.944
2023-01-13T03:00:16.475Z,29.932
2023-01-13T03:05:16.283Z,29.925
2023-01-13T03:10:16.320Z,29.912
2023-01-13T03:15:16.320Z,29.909
2023-01-13T03:20:16.236Z,29.897
2023-01-13T03:25:16.365Z,29.890
2023-01-13T03:30:16.457Z,29.886
2023-01-13T03:35:16.302Z,29.880
2023-01-13T03:40:16.373Z,29.878
2023-01-13T03:45:16.275Z,29.874
2023-01-13T03:50:16.718Z,29.864
2023-01-13T03:55:16.465Z,29.866
2023-01-13T04:00:16.518Z,29.866
2023-01-13T04:05:16.352Z,29.865
2023-01-13T04:10:16.503Z,29.851
2023-01-13T04:15:16.372Z,29.847
2023-01-13T04:20:16.449Z,29.844
2023-01-13T04:25:16.429Z,29.842
2023-01-13T04:30:16.459Z,29.841
2023-01-13T04:35:16.472Z,29.835
2023-01-13T04:40:16.483Z,29.829
2023-01-13T04:45:16.493Z,29.823
2023-01-13T04:50:16.596Z,29.814
2023-01-13T04:55:16.489Z,29.806
2023-01-13T05:00:15.465Z,29.803
2023-01-13T05:05:15.569Z,29.793
2023-01-13T05:10:15.605Z,29.786
2023-01-13T05:15:15.615Z,29.782
2023-01-13T05:20:15.487Z,29.776
2023-01-13T05:25:15.633Z,29.775
2023-01-13T05:30:15.715Z,29.767
2023-01-13T05:35:15.691Z,29.762
2023-01-13T05:40:15.579Z,29.759
2023-01-13T05:45:15.599Z,29.749
2023-01-13T05:50:15.725Z,29.737
2023-01-13T05:55:15.524Z,29.740
2023-01-13T06:00:15.642Z,29.739
2023-01-13T06:05:15.752Z,29.737
2023-01-13T06:10:15.644Z,29.738
2023-01-13T06:15:15.644Z,29.735
2023-01-13T06:20:15.746Z,29.730
2023-01-13T06:25:15.723Z,29.727
2023-01-13T06:30:15.821Z,29.725
2023-01-13T06:35:15.657Z,29.719
2023-01-13T06:40:15.938Z,29.721
2023-01-13T06:45:15.686Z,29.721
2023-01-13T06:50:15.837Z,29.711
2023-01-13T06:55:15.909Z,29.707
2023-01-13T07:00:15.747Z,29.703
2023-01-13T07:05:15.789Z,29.703
2023-01-13T07:10:15.816Z,29.698
2023-01-13T07:15:15.746Z,29.692
2023-01-13T07:20:15.888Z,29.687
2023-01-13T07:25:15.847Z,29.682
2023-01-13T07:30:15.897Z,29.676
2023-01-13T07:35:15.871Z,29.673
2023-01-13T07:40:16.053Z,29.671
2023-01-13T07:45:16.060Z,29.671
2023-01-13T07:50:16.049Z,29.669
2023-01-13T07:55:15.780Z,29.669
2023-01-13T08:00:15.935Z,29.665
2023-01-13T08:05:15.899Z,29.657
2023-01-13T08:15:15.892Z,29.649
2023-01-13T08:20:16.025Z,29.649
2023-01-13T08:25:15.976Z,29.649
2023-01-13T08:30:15.958Z,29.649
2023-01-13T08:35:15.941Z,29.645
2023-01-13T08:40:16.040Z,29.641
2023-01-13T08:45:16.162Z,29.642
2023-01-13T08:50:16.048Z,29.638
2023-01-13T08:55:15.985Z,29.635
2023-01-13T09:00:15.999Z,29.641
2023-01-13T09:05:17.744Z,29.640
2023-01-13T09:10:16.087Z,29.645
2023-01-13T09:15:16.063Z,29.644
2023-01-13T09:20:16.038Z,29.638
2023-01-13T09:25:16.155Z,29.630
2023-01-13T09:30:16.121Z,29.628
2023-01-13T09:35:16.075Z,29.627
2023-01-13T09:40:16.125Z,29.621
2023-01-13T09:45:16.151Z,29.614
2023-01-13T09:50:16.113Z,29.613
2023-01-13T09:55:16.182Z,29.616
2023-01-13T10:00:16.271Z,29.613
2023-01-13T10:05:16.202Z,29.610
2023-01-13T10:10:16.402Z,29.611
2023-01-13T10:15:16.324Z,29.612
2023-01-13T10:20:16.166Z,29.604
2023-01-13T10:25:16.176Z,29.603
2023-01-13T10:30:16.354Z,29.604
2023-01-13T10:35:16.274Z,29.598
2023-01-13T10:40:16.264Z,29.595
2023-01-13T10:45:16.253Z,29.593
2023-01-13T10:50:16.322Z,29.591
2023-01-13T10:55:16.229Z,29.590
2023-01-13T11:00:16.338Z,29.586
2023-01-13T11:05:16.334Z,29.586
2023-01-13T11:10:16.295Z,29.576
2023-01-13T11:15:16.371Z,29.580
2023-01-13T11:20:16.471Z,29.581
2023-01-13T11:25:16.296Z,29.580
2023-01-13T11:30:16.447Z,29.579
2023-01-13T11:35:16.354Z,29.581
2023-01-13T11:40:16.452Z,29.573
2023-01-13T11:45:16.396Z,29.574
2023-01-13T11:50:16.361Z,29.572
2023-01-13T11:55:16.604Z,29.571
2023-01-13T12:00:16.568Z,29.570
2023-01-13T12:05:16.682Z,29.576
2023-01-13T12:10:16.503Z,29.577
2023-01-13T12:15:16.438Z,29.582
2023-01-13T12:20:16.354Z,29.575
2023-01-13T12:25:16.415Z,29.571
2023-01-13T12:30:16.482Z,29.573
2023-01-13T12:35:16.459Z,29.573
2023-01-13T12:40:16.594Z,29.569
2023-01-13T12:45:18.495Z,29.572
2023-01-13T12:50:16.617Z,29.567
2023-01-13T12:55:16.508Z,29.573
2023-01-13T13:00:16.531Z,29.582
2023-01-13T13:05:16.491Z,29.586
2023-01-13T13:10:16.556Z,29.588
2023-01-13T13:15:16.643Z,29.582
2023-01-13T13:20:16.698Z,29.581
2023-01-13T13:25:16.686Z,29.581
2023-01-13T13:30:16.767Z,29.586
2023-01-13T13:35:16.592Z,29.583
2023-01-13T13:40:16.652Z,29.576
2023-01-13T13:45:16.656Z,29.572
2023-01-13T13:50:16.641Z,29.567
2023-01-13T13:55:16.550Z,29.571
2023-01-13T14:00:16.622Z,29.582
2023-01-13T14:05:16.835Z,29.578
2023-01-13T14:10:16.758Z,29.573
2023-01-13T14:15:16.665Z,29.579
2023-01-13T14:20:16.626Z,29.576
2023-01-13T14:25:16.725Z,29.573
2023-01-13T14:30:16.795Z,29.575
2023-01-13T14:35:16.688Z,29.580
2023-01-13T14:40:16.819Z,29.581
2023-01-13T14:45:16.803Z,29.583
2023-01-13T14:50:16.722Z,29.581
2023-01-13T14:55:16.752Z,29.576
2023-01-13T15:00:16.740Z,29.572
2023-01-13T15:05:16.955Z,29.568
2023-01-13T15:10:16.732Z,29.562
2023-01-13T15:15:16.822Z,29.556
2023-01-13T15:20:16.738Z,29.555
2023-01-13T15:25:16.736Z,29.552
2023-01-13T15:30:16.762Z,29.550
2023-01-13T15:35:16.846Z,29.549
2023-01-13T15:40:16.851Z,29.549
2023-01-13T15:45:16.809Z,29.543
2023-01-13T15:50:17.065Z,29.539
2023-01-13T15:55:16.824Z,29.534
2023-01-13T16:00:16.829Z,29.533
2023-01-13T16:05:16.894Z,29.531
2023-01-13T16:10:16.878Z,29.525
2023-01-13T16:15:17.020Z,29.520
2023-01-13T16:20:16.997Z,29.518
2023-01-13T16:25:17.003Z,29.513
2023-01-13T16:30:16.845Z,29.510
2023-01-13T16:35:17.141Z,29.503
2023-01-13T16:40:16.990Z,29.507
2023-01-13T16:45:17.208Z,29.507
2023-01-13T16:50:17.017Z,29.512
2023-01-13T16:55:16.999Z,29.497
2023-01-13T17:00:16.988Z,29.499
2023-01-13T17:05:17.111Z,29.501
2023-01-13T17:10:17.045Z,29.502
2023-01-13T17:15:17.011Z,29.503
2023-01-13T17:20:17.034Z,29.500
2023-01-13T17:25:17.057Z,29.504
2023-01-13T17:30:17.062Z,29.502
2023-01-13T17:35:17.279Z,29.499
2023-01-13T17:40:17.259Z,29.495
2023-01-13T17:45:17.206Z,29.497
2023-01-13T17:50:17.081Z,29.501
2023-01-13T17:55:17.527Z,29.502
2023-01-13T18:00:17.121Z,29.505
2023-01-13T18:05:17.140Z,29.507
2023-01-13T18:10:17.288Z,29.509
2023-01-13T18:15:17.173Z,29.512
2023-01-13T18:20:17.315Z,29.513
2023-01-13T18:25:17.226Z,29.507
2023-01-13T18:30:17.186Z,29.507
2023-01-13T18:35:17.188Z,29.508
2023-01-13T18:40:17.268Z,29.508
2023-01-13T18:45:17.327Z,29.504
2023-01-13T18:50:17.266Z,29.508
2023-01-13T18:55:17.410Z,29.508
2023-01-13T19:00:17.306Z,29.511
2023-01-13T19:05:17.404Z,29.506
2023-01-13T19:10:17.498Z,29.508
2023-01-13T19:15:17.326Z,29.518
2023-01-13T19:20:17.325Z,29.517
2023-01-13T19:25:17.554Z,29.514
2023-01-13T19:30:17.370Z,29.517
2023-01-13T19:35:17.508Z,29.522
2023-01-13T19:40:17.265Z,29.520
2023-01-13T19:45:17.448Z,29.517
2023-01-13T19:50:17.404Z,29.510
2023-01-13T19:55:17.274Z,29.520
2023-01-13T20:00:17.486Z,29.521
2023-01-13T20:05:15.411Z,29.519
2023-01-13T20:10:15.470Z,29.518
2023-01-13T20:15:15.331Z,29.520
2023-01-13T20:20:15.369Z,29.522
2023-01-13T20:25:15.475Z,29.521
2023-01-13T20:30:15.472Z,29.523
2023-01-13T20:35:15.521Z,29.524
2023-01-13T20:40:15.533Z,29.531
2023-01-13T20:45:15.628Z,29.534
2023-01-13T20:50:15.659Z,29.533
2023-01-13T20:55:15.636Z,29.540
2023-01-13T21:00:15.536Z,29.540
2023-01-13T21:05:15.486Z,29.542
2023-01-13T21:10:15.518Z,29.543
2023-01-13T21:15:15.672Z,29.541
2023-01-13T21:20:15.552Z,29.539
2023-01-13T21:25:15.588Z,29.539
2023-01-13T21:30:15.799Z,29.547
2023-01-13T21:35:15.663Z,29.549
2023-01-13T21:40:15.707Z,29.547
2023-01-13T21:45:15.674Z,29.550
2023-01-13T21:50:15.915Z,29.547
2023-01-13T21:55:15.576Z,29.551
2023-01-13T22:00:15.686Z,29.557
2023-01-13T22:05:15.641Z,29.566
2023-01-13T22:10:15.818Z,29.562
2023-01-13T22:15:15.669Z,29.569
2023-01-13T22:20:15.857Z,29.571
2023-01-13T22:25:15.915Z,29.573
2023-01-13T22:30:15.899Z,29.580
2023-01-13T22:35:15.890Z,29.579
2023-01-13T22:40:15.934Z,29.592
2023-01-13T22:45:16.122Z,29.596
2023-01-13T22:50:15.756Z,29.596
2023-01-13T22:55:16.100Z,29.599
2023-01-13T23:00:15.759Z,29.604
2023-01-13T23:05:15.926Z,29.606
2023-01-13T23:10:15.979Z,29.606
2023-01-13T23:15:15.892Z,29.610
2023-01-13T23:20:15.963Z,29.613
2023-01-13T23:25:15.853Z,29.615
2023-01-13T23:30:15.907Z,29.614
2023-01-13T23:35:15.969Z,29.610
2023-01-13T23:40:16.015Z,29.615
2023-01-13T23:45:16.038Z,29.614
2023-01-13T23:50:16.051Z,29.611
2023-01-13T23:55:16.026Z,29.616
